Time;durP1;ratioP1;P1;durP2;ratioP2;P2;SDS_P1;SDS_P2;PMS_P1;PMS_P2;Temp;Humidity;BMP_temperature;BMP_pressure;BME280_temperature;BME280_humidity;BME280_pressure;Samples;Min_cycle;Max_cycle;Signal;HPM_P1;HPM_P2
2023/06/08 00:00:10;;;;;;;0.30;0.30;;;12.50;1.00;;;;;;4810445;29;20046;-88
2023/06/08 00:02:36;;;;;;;1.95;0.80;;;12.50;1.00;;;;;;4823445;29;20394;-88
2023/06/08 00:05:02;;;;;;;0.88;0.50;;;12.50;1.00;;;;;;4810700;29;20049;-88
2023/06/08 00:07:29;;;;;;;0.80;0.60;;;12.40;1.00;;;;;;4796996;29;20050;-89
2023/06/08 00:09:56;;;;;;;1.05;0.52;;;12.40;1.00;;;;;;4806491;29;20140;-88
2023/06/08 00:12:22;;;;;;;0.25;0.25;;;12.30;1.00;;;;;;4812617;29;20050;-87
2023/06/08 00:14:48;;;;;;;0.60;0.57;;;12.30;1.00;;;;;;4797050;29;20050;-88
2023/06/08 00:17:14;;;;;;;0.93;0.80;;;12.30;1.00;;;;;;4812481;29;20173;-87
2023/06/08 00:19:42;;;;;;;1.42;0.55;;;12.30;1.00;;;;;;4811850;29;20561;-88
2023/06/08 00:22:12;;;;;;;0.60;0.57;;;12.30;1.00;;;;;;4797101;29;20046;-87
2023/06/08 00:24:38;;;;;;;0.60;0.60;;;12.30;1.00;;;;;;4811114;29;20114;-88
2023/06/08 00:27:05;;;;;;;0.45;0.45;;;12.30;1.00;;;;;;4797319;29;20046;-87
2023/06/08 00:29:32;;;;;;;0.63;0.63;;;12.30;1.00;;;;;;4814859;29;20050;-88
2023/06/08 00:31:57;;;;;;;0.20;0.20;;;12.30;1.00;;;;;;4845725;29;20056;-88
2023/06/08 00:34:25;;;;;;;0.50;0.50;;;12.40;1.00;;;;;;4815266;29;20046;-88
2023/06/08 00:36:51;;;;;;;0.98;0.60;;;12.30;1.00;;;;;;4827605;29;21009;-88
2023/06/08 00:39:16;;;;;;;0.93;0.80;;;12.30;1.00;;;;;;4810160;29;20129;-88
2023/06/08 00:41:42;;;;;;;1.23;0.80;;;12.30;1.00;;;;;;4809315;29;20050;-88
2023/06/08 00:44:08;;;;;;;0.60;0.60;;;12.30;1.00;;;;;;4824782;29;20052;-88
2023/06/08 00:46:35;;;;;;;1.10;0.50;;;12.30;1.00;;;;;;4824043;29;20087;-89
2023/06/08 00:49:04;;;;;;;0.73;0.50;;;12.30;1.00;;;;;;4824270;29;20066;-89
2023/06/08 00:51:36;;;;;;;0.80;0.80;;;12.30;1.00;;;;;;4822236;29;20106;-89
2023/06/08 00:54:02;;;;;;;2.13;0.57;;;12.30;1.00;;;;;;4824908;29;20057;-88
2023/06/08 00:56:31;;;;;;;0.60;0.47;;;12.20;1.00;;;;;;4824235;29;20049;-88
2023/06/08 00:59:00;;;;;;;0.63;0.47;;;12.20;1.00;;;;;;4813619;29;20042;-88
2023/06/08 01:01:29;;;;;;;0.47;0.47;;;12.20;1.00;;;;;;4794537;29;20048;-88
2023/06/08 01:04:05;;;;;;;0.70;0.70;;;12.20;1.00;;;;;;4824081;29;20648;-89
2023/06/08 01:06:35;;;;;;;0.30;0.30;;;12.20;1.00;;;;;;4817860;29;20061;-88
2023/06/08 01:09:24;;;;;;;0.40;0.40;;;12.30;1.00;;;;;;4805840;29;20061;-88
2023/06/08 01:12:17;;;;;;;1.40;1.35;;;12.30;1.00;;;;;;4817954;29;20132;-88
2023/06/08 01:14:56;;;;;;;0.50;0.50;;;12.30;1.00;;;;;;4801243;29;20057;-88
2023/06/08 01:17:35;;;;;;;0.73;0.73;;;12.30;1.00;;;;;;4834116;29;20046;-88
2023/06/08 01:20:24;;;;;;;0.85;0.57;;;12.30;1.00;;;;;;4809426;29;20088;-89
2023/06/08 01:22:58;;;;;;;0.70;0.38;;;12.20;1.00;;;;;;4802312;29;20637;-88
2023/06/08 01:25:28;;;;;;;0.80;0.80;;;12.20;1.00;;;;;;4807641;29;20129;-88
2023/06/08 01:28:15;;;;;;;0.60;0.60;;;12.20;1.00;;;;;;4823997;29;20060;-87
2023/06/08 01:30:51;;;;;;;1.00;0.70;;;12.20;1.00;;;;;;4821602;29;20046;-89
2023/06/08 01:33:19;;;;;;;1.42;1.20;;;12.20;1.00;;;;;;4824143;29;20050;-88
2023/06/08 01:35:52;;;;;;;0.60;0.60;;;12.20;1.00;;;;;;4820641;29;20058;-89
2023/06/08 01:38:28;;;;;;;1.33;1.15;;;12.20;1.00;;;;;;4809012;29;20050;-89
2023/06/08 01:40:56;;;;;;;0.50;0.50;;;12.20;1.00;;;;;;4821975;29;20128;-89
2023/06/08 01:43:24;;;;;;;1.58;1.10;;;12.20;1.00;;;;;;4792187;29;20069;-88
2023/06/08 01:45:54;;;;;;;0.73;0.73;;;12.20;1.00;;;;;;4823072;29;20089;-88
2023/06/08 01:48:22;;;;;;;1.02;0.80;;;12.20;1.00;;;;;;4822955;29;20069;-88
2023/06/08 01:50:50;;;;;;;1.75;0.98;;;12.20;1.00;;;;;;4793385;29;20054;-88
2023/06/08 01:53:17;;;;;;;1.52;0.55;;;12.20;1.00;;;;;;4824103;29;20058;-88
2023/06/08 01:55:42;;;;;;;2.10;0.65;;;12.20;1.00;;;;;;4820421;29;20061;-87
2023/06/08 01:58:08;;;;;;;0.80;0.77;;;12.20;1.00;;;;;;4806463;29;20405;-88
2023/06/08 02:00:34;;;;;;;0.80;0.80;;;12.20;1.00;;;;;;4806755;29;20045;-88
2023/06/08 02:02:59;;;;;;;2.23;1.47;;;12.20;1.00;;;;;;4806623;29;20558;-88
2023/06/08 02:05:27;;;;;;;1.07;0.60;;;12.20;1.00;;;;;;4808562;29;20390;-88
2023/06/08 02:07:53;;;;;;;0.47;0.47;;;12.20;1.00;;;;;;4824553;29;20058;-88
2023/06/08 02:10:19;;;;;;;0.73;0.70;;;12.20;1.00;;;;;;4794425;29;20045;-88
2023/06/08 02:12:44;;;;;;;0.50;0.50;;;12.20;1.00;;;;;;4813173;29;20415;-88
2023/06/08 02:15:10;;;;;;;0.43;0.43;;;12.20;1.00;;;;;;4828923;29;20053;-88
2023/06/08 02:17:36;;;;;;;0.80;0.80;;;12.20;1.00;;;;;;4801951;29;20046;-88
2023/06/08 02:20:06;;;;;;;1.53;0.83;;;12.20;1.00;;;;;;4807058;29;20476;-88
2023/06/08 02:22:36;;;;;;;1.30;0.65;;;12.10;1.00;;;;;;4807485;29;20057;-88
2023/06/08 02:25:03;;;;;;;1.95;0.93;;;12.10;1.00;;;;;;4807102;29;20145;-88
2023/06/08 02:27:29;;;;;;;0.88;0.70;;;12.10;1.00;;;;;;4807783;29;20113;-88
2023/06/08 02:29:56;;;;;;;0.85;0.55;;;12.10;1.00;;;;;;4818335;29;20084;-88
2023/06/08 02:32:22;;;;;;;;;;;12.10;1.00;;;;;;4835496;29;20052;-88
2023/06/08 02:34:55;;;;;;;2.10;1.10;;;12.10;1.00;;;;;;4809438;29;20358;-89
2023/06/08 02:37:22;;;;;;;0.50;0.50;;;12.10;1.00;;;;;;4793885;29;20054;-88
2023/06/08 02:39:50;;;;;;;1.10;1.00;;;12.10;1.00;;;;;;4822815;29;20501;-89
2023/06/08 02:42:18;;;;;;;0.90;0.90;;;12.00;1.00;;;;;;4807528;29;20149;-88
2023/06/08 02:44:45;;;;;;;0.80;0.80;;;12.00;1.00;;;;;;4821552;29;20106;-89
2023/06/08 02:47:11;;;;;;;0.93;0.70;;;12.00;1.00;;;;;;4822461;29;20107;-88
2023/06/08 02:49:37;;;;;;;0.98;0.63;;;12.00;1.00;;;;;;4823323;29;20133;-89
2023/06/08 02:52:03;;;;;;;0.80;0.80;;;12.00;1.00;;;;;;4807972;29;20145;-88
2023/06/08 02:54:29;;;;;;;3.63;1.67;;;11.90;1.00;;;;;;4808192;29;20081;-89
2023/06/08 02:56:56;;;;;;;2.50;0.90;;;11.90;1.00;;;;;;4793072;29;20498;-88
2023/06/08 02:59:22;;;;;;;0.60;0.60;;;11.90;1.00;;;;;;4807254;29;20408;-89
2023/06/08 03:01:53;;;;;;;0.55;0.55;;;11.90;1.00;;;;;;4809010;29;20046;-88
2023/06/08 03:04:22;;;;;;;1.20;0.65;;;11.80;1.00;;;;;;4822570;29;20085;-89
2023/06/08 03:06:53;;;;;;;0.55;0.40;;;11.80;1.00;;;;;;4823936;29;20078;-88
2023/06/08 03:09:39;;;;;;;1.08;0.75;;;11.80;1.00;;;;;;4823109;29;20053;-88
2023/06/08 03:12:05;;;;;;;0.90;0.90;;;11.80;1.00;;;;;;4821250;29;20061;-88
2023/06/08 03:14:31;;;;;;;2.00;0.85;;;11.80;1.00;;;;;;4793223;29;20124;-88
2023/06/08 03:17:01;;;;;;;1.23;0.88;;;11.80;1.00;;;;;;4807615;29;20093;-88
2023/06/08 03:19:30;;;;;;;1.35;1.25;;;11.80;1.00;;;;;;4826150;29;20076;-88
2023/06/08 03:22:02;;;;;;;0.55;0.55;;;11.80;1.00;;;;;;4810927;29;20121;-88
2023/06/08 03:24:31;;;;;;;0.80;0.70;;;11.80;1.00;;;;;;4825520;29;20053;-88
2023/06/08 03:27:01;;;;;;;1.08;0.95;;;11.80;1.00;;;;;;4827055;29;20060;-89
2023/06/08 03:29:30;;;;;;;1.13;0.70;;;11.70;1.00;;;;;;4826914;29;20110;-89
2023/06/08 03:31:57;;;;;;;0.65;0.60;;;11.70;1.00;;;;;;4825788;29;20053;-88
2023/06/08 03:34:25;;;;;;;0.45;0.45;;;11.70;1.00;;;;;;4810703;29;20076;-89
2023/06/08 03:36:52;;;;;;;1.30;1.20;;;11.60;1.00;;;;;;4823849;29;20134;-89
2023/06/08 03:39:17;;;;;;;;;;;11.60;1.00;;;;;;4826103;29;20050;-88
2023/06/08 03:41:43;;;;;;;0.63;0.60;;;11.60;3.50;;;;;;4825743;29;19932;-89
2023/06/08 03:44:09;;;;;;;0.43;0.43;;;11.70;1.00;;;;;;4824640;29;20042;-89
2023/06/08 03:46:35;;;;;;;0.87;0.80;;;11.60;1.00;;;;;;4810874;29;20532;-88
2023/06/08 03:49:01;;;;;;;1.57;0.83;;;11.60;1.00;;;;;;4809855;29;20125;-89
2023/06/08 03:51:27;;;;;;;0.80;0.80;;;11.60;1.00;;;;;;4826231;29;20042;-88
2023/06/08 03:53:52;;;;;;;1.53;0.80;;;11.60;1.00;;;;;;4795592;29;20408;-88
2023/06/08 03:56:18;;;;;;;0.87;0.50;;;11.60;1.00;;;;;;4824805;29;20046;-88
2023/06/08 03:58:48;;;;;;;2.20;1.00;;;11.60;1.00;;;;;;4823908;29;20141;-89
2023/06/08 04:01:14;;;;;;;0.90;0.75;;;11.60;1.00;;;;;;4809432;29;20129;-88
2023/06/08 04:03:41;;;;;;;0.70;0.70;;;11.60;1.00;;;;;;4809975;29;20061;-88
2023/06/08 04:06:08;;;;;;;0.98;0.60;;;11.60;1.00;;;;;;4811514;29;20082;-88
2023/06/08 04:08:39;;;;;;;1.05;0.60;;;11.50;1.00;;;;;;4827726;29;20057;-88
2023/06/08 04:11:11;;;;;;;0.75;0.60;;;11.50;1.00;;;;;;4808003;29;20054;-88
2023/06/08 04:13:38;;;;;;;0.98;0.88;;;11.50;1.00;;;;;;4827231;29;20046;-88
2023/06/08 04:16:08;;;;;;;1.17;0.95;;;11.50;1.00;;;;;;4812632;29;20504;-88
2023/06/08 04:18:35;;;;;;;1.30;0.85;;;11.60;1.00;;;;;;4812778;29;20054;-88
2023/06/08 04:21:01;;;;;;;1.10;0.63;;;11.60;1.00;;;;;;4811718;29;20097;-89
2023/06/08 04:23:28;;;;;;;0.77;0.70;;;11.50;1.00;;;;;;4797516;29;20098;-88
2023/06/08 04:25:54;;;;;;;0.88;0.70;;;11.50;1.00;;;;;;4812761;29;20049;-88
2023/06/08 04:28:21;;;;;;;0.95;0.85;;;11.60;1.00;;;;;;4796410;29;20054;-88
2023/06/08 04:30:48;;;;;;;0.68;0.60;;;11.60;1.00;;;;;;4811010;29;20140;-89
2023/06/08 04:33:15;;;;;;;0.90;0.90;;;11.60;1.00;;;;;;4827339;29;20057;-89
2023/06/08 04:35:41;;;;;;;;;;;11.60;1.00;;;;;;4826972;29;20053;-88
2023/06/08 04:38:16;;;;;;;0.88;0.55;;;11.60;6.70;;;;;;4810267;29;19932;-88
2023/06/08 04:40:53;;;;;;;0.60;0.60;;;11.70;1.00;;;;;;4823035;29;20125;-88
2023/06/08 04:43:20;;;;;;;;;;;11.70;1.00;;;;;;4809146;29;20054;-89
2023/06/08 04:45:59;;;;;;;2.03;1.00;;;11.70;4.70;;;;;;4810267;29;19924;-89
2023/06/08 04:48:33;;;;;;;1.60;0.80;;;11.70;1.00;;;;;;4809082;29;20407;-89
2023/06/08 04:51:04;;;;;;;0.77;0.70;;;11.80;1.00;;;;;;4825874;29;20515;-88
2023/06/08 04:53:34;;;;;;;1.40;0.88;;;11.70;1.00;;;;;;4822611;29;20401;-88
2023/06/08 04:56:01;;;;;;;0.85;0.85;;;11.70;1.00;;;;;;4824459;29;20129;-89
2023/06/08 04:58:33;;;;;;;0.80;0.80;;;11.80;1.00;;;;;;4793849;29;20053;-88
2023/06/08 05:00:59;;;;;;;0.93;0.82;;;11.80;1.00;;;;;;4810790;29;20504;-88
2023/06/08 05:03:30;;;;;;;0.98;0.80;;;11.80;1.00;;;;;;4824486;29;20060;-88
2023/06/08 05:05:55;;;;;;;0.95;0.85;;;11.90;1.00;;;;;;4844306;29;20057;-89
2023/06/08 05:08:28;;;;;;;1.53;1.23;;;11.90;1.00;;;;;;4824622;29;20397;-89
2023/06/08 05:10:54;;;;;;;0.50;0.45;;;11.90;1.00;;;;;;4810658;29;20409;-89
2023/06/08 05:13:22;;;;;;;1.10;0.95;;;11.90;1.00;;;;;;4826155;29;20045;-88
2023/06/08 05:15:50;;;;;;;1.23;0.77;;;11.90;1.00;;;;;;4811089;29;20060;-88
2023/06/08 05:18:18;;;;;;;1.02;0.85;;;12.00;1.00;;;;;;4811040;29;20092;-89
2023/06/08 05:20:43;;;;;;;0.77;0.77;;;11.90;1.00;;;;;;4810754;29;20062;-89
2023/06/08 05:23:09;;;;;;;1.57;1.10;;;11.90;1.00;;;;;;4823345;29;20165;-88
2023/06/08 05:25:36;;;;;;;0.40;0.40;;;12.00;1.00;;;;;;4808799;29;20054;-89
2023/06/08 05:28:03;;;;;;;1.00;0.60;;;12.00;1.00;;;;;;4810413;29;20106;-89
2023/06/08 05:30:30;;;;;;;0.65;0.65;;;12.10;1.00;;;;;;4838369;29;20081;-89
2023/06/08 05:33:01;;;;;;;0.65;0.57;;;12.30;1.00;;;;;;4796166;29;20049;-89
2023/06/08 05:35:28;;;;;;;0.95;0.88;;;12.40;1.00;;;;;;4809147;29;20046;-89
2023/06/08 05:37:54;;;;;;;4.30;1.02;;;12.50;1.00;;;;;;4824614;29;20053;-88
2023/06/08 05:40:20;;;;;;;0.70;0.70;;;12.50;1.00;;;;;;4807855;29;20082;-88
2023/06/08 05:42:46;;;;;;;1.58;0.88;;;12.70;1.00;;;;;;4808047;29;20077;-88
2023/06/08 05:45:12;;;;;;;0.63;0.60;;;12.70;1.00;;;;;;4808201;29;20081;-89
2023/06/08 05:47:38;;;;;;;1.95;0.88;;;12.70;1.00;;;;;;4816104;29;20062;-89
2023/06/08 05:50:04;;;;;;;1.30;0.77;;;12.70;1.00;;;;;;4807486;29;20092;-89
2023/06/08 05:52:31;;;;;;;1.23;0.70;;;12.90;1.00;;;;;;4792747;29;20054;-89
2023/06/08 05:54:57;;;;;;;1.17;0.60;;;13.00;1.00;;;;;;4807892;29;20045;-89
2023/06/08 05:57:23;;;;;;;0.65;0.45;;;13.20;1.00;;;;;;4808338;29;20512;-89
2023/06/08 05:59:48;;;;;;;0.53;0.50;;;13.70;1.00;;;;;;4793527;29;20050;-89
2023/06/08 06:02:14;;;;;;;0.87;0.77;;;14.20;1.00;;;;;;4806387;29;20045;-88
2023/06/08 06:04:40;;;;;;;1.20;1.10;;;14.30;1.00;;;;;;4793954;29;20564;-88
2023/06/08 06:07:07;;;;;;;1.83;1.02;;;14.20;1.00;;;;;;4827298;29;20056;-92
2023/06/08 06:09:35;;;;;;;1.02;0.95;;;14.10;1.00;;;;;;4825939;29;20085;-93
2023/06/08 06:12:01;;;;;;;1.95;1.08;;;14.20;1.00;;;;;;4797241;29;20048;-92
2023/06/08 06:14:43;;;;;;;1.55;1.20;;;14.50;1.00;;;;;;4825002;29;20133;-91
2023/06/08 06:17:15;;;;;;;4.05;1.58;;;14.90;1.00;;;;;;4805092;29;20062;-91
2023/06/08 06:19:41;;;;;;;1.27;0.70;;;15.10;1.00;;;;;;4810069;29;20505;-90
2023/06/08 06:22:10;;;;;;;1.38;1.23;;;15.00;1.00;;;;;;4808364;29;20042;-89
2023/06/08 06:24:38;;;;;;;0.70;0.70;;;16.30;1.00;;;;;;4841043;29;20061;-89
2023/06/08 06:27:24;;;;;;;0.75;0.63;;;16.50;1.00;;;;;;4811699;29;20050;-89
2023/06/08 06:29:55;;;;;;;1.08;1.08;;;16.20;1.00;;;;;;4825572;29;20042;-92
2023/06/08 06:32:23;;;;;;;2.67;1.05;;;17.20;1.00;;;;;;4826982;29;20133;-90
2023/06/08 06:35:15;;;;;;;2.92;1.15;;;16.90;1.00;;;;;;4842119;29;20054;-91
2023/06/08 06:37:53;;;;;;;0.60;0.60;;;17.10;99.90;;;;;;4793335;29;20054;-91
2023/06/08 06:40:22;;;;;;;0.43;0.43;;;17.20;1.00;;;;;;4797792;29;20505;-93
2023/06/08 06:42:50;;;;;;;1.38;0.93;;;17.30;1.00;;;;;;4824741;29;20050;-96
2023/06/08 06:45:16;;;;;;;0.57;0.57;;;17.40;1.00;;;;;;4810338;29;20091;-89
2023/06/08 06:47:45;;;;;;;0.43;0.43;;;17.40;99.90;;;;;;4809128;29;20033;-92
2023/06/08 06:50:10;;;;;;;0.63;0.63;;;17.50;1.00;;;;;;4823430;29;20058;-89
2023/06/08 06:52:36;;;;;;;1.08;0.40;;;17.50;99.90;;;;;;4806969;29;20050;-92
2023/06/08 06:55:08;;;;;;;1.50;0.95;;;17.60;99.90;;;;;;4799876;29;20491;-92
2023/06/08 06:57:37;;;;;;;1.65;0.68;;;16.90;99.90;;;;;;4826515;29;20049;-93
2023/06/08 07:00:10;;;;;;;0.68;0.68;;;17.60;99.90;;;;;;4799705;29;20065;-94
2023/06/08 07:02:40;;;;;;;0.75;0.75;;;17.60;99.90;;;;;;4829389;29;20046;-92
2023/06/08 07:05:07;;;;;;;0.45;0.30;;;17.70;99.90;;;;;;4825799;29;20054;-92
2023/06/08 07:07:36;;;;;;;0.50;0.50;;;17.90;99.90;;;;;;4827255;29;20058;-92
2023/06/08 07:10:05;;;;;;;0.50;0.50;;;17.80;99.90;;;;;;4812059;29;20049;-92
2023/06/08 07:12:38;;;;;;;0.88;0.70;;;18.00;99.90;;;;;;4811420;29;20062;-90
2023/06/08 07:15:15;;;;;;;0.70;0.70;;;18.20;99.90;;;;;;4821884;29;20054;-92
2023/06/08 07:17:46;;;;;;;0.63;0.60;;;18.40;99.90;;;;;;4811228;29;20080;-91
2023/06/08 07:20:14;;;;;;;0.50;0.50;;;18.60;99.90;;;;;;4826658;29;20062;-88
2023/06/08 07:22:42;;;;;;;0.15;0.15;;;18.80;99.90;;;;;;4803861;29;20094;-92
2023/06/08 07:25:20;;;;;;;0.88;0.40;;;18.80;99.90;;;;;;4793874;29;20051;-90
2023/06/08 07:27:48;;;;;;;1.67;0.50;;;19.00;99.90;;;;;;4795949;29;20545;-90
2023/06/08 07:30:16;;;;;;;0.60;0.50;;;19.20;99.90;;;;;;4811845;29;20045;-90
2023/06/08 07:32:43;;;;;;;0.50;0.50;;;19.40;99.90;;;;;;4823318;29;20082;-87
2023/06/08 07:35:11;;;;;;;0.47;0.47;;;19.70;99.90;;;;;;4793198;29;20106;-86
2023/06/08 07:37:37;;;;;;;0.88;0.88;;;19.80;1.00;;;;;;4825726;29;20057;-86
2023/06/08 07:40:11;;;;;;;0.50;0.50;;;19.80;1.00;;;;;;4822619;29;20082;-87
2023/06/08 07:42:39;;;;;;;0.93;0.50;;;19.80;1.00;;;;;;4808355;29;20079;-87
2023/06/08 07:45:11;;;;;;;0.95;0.63;;;19.60;1.00;;;;;;4811637;29;20410;-88
2023/06/08 07:47:38;;;;;;;0.20;0.20;;;19.60;1.00;;;;;;4840057;29;20148;-88
2023/06/08 07:50:11;;;;;;;0.73;0.57;;;19.60;99.90;;;;;;4806827;29;20085;-87
2023/06/08 07:52:37;;;;;;;0.45;0.45;;;19.60;99.90;;;;;;4827798;29;20088;-88
2023/06/08 07:55:05;;;;;;;0.82;0.80;;;19.70;99.90;;;;;;4808030;29;20045;-87
2023/06/08 07:57:31;;;;;;;0.40;0.38;;;20.00;99.90;;;;;;4824773;29;20053;-88
2023/06/08 07:59:59;;;;;;;0.55;0.55;;;19.90;30.20;;;;;;4810560;29;20092;-87
2023/06/08 08:02:28;;;;;;;2.55;0.52;;;20.00;63.80;;;;;;4809795;29;20057;-87
2023/06/08 08:04:53;;;;;;;1.25;1.08;;;20.00;99.90;;;;;;4794831;29;20114;-91
2023/06/08 08:07:32;;;;;;;0.40;0.40;;;20.10;99.90;;;;;;4812713;29;20136;-92
2023/06/08 08:10:06;;;;;;;0.52;0.40;;;19.50;99.90;;;;;;4797096;29;20472;-91
2023/06/08 08:12:42;;;;;;;0.52;0.38;;;20.20;1.00;;;;;;4797280;29;20406;-91
2023/06/08 08:15:13;;;;;;;0.70;0.68;;;20.20;39.40;;;;;;4809741;29;20141;-90
2023/06/08 08:17:41;;;;;;;0.40;0.40;;;20.30;99.90;;;;;;4830374;29;20129;-90
2023/06/08 08:20:16;;;;;;;0.52;0.50;;;20.50;83.00;;;;;;4811361;29;20057;-90
2023/06/08 08:22:42;;;;;;;1.02;0.40;;;19.70;1.00;;;;;;4803338;29;20050;-87
2023/06/08 08:25:13;;;;;;;0.50;0.50;;;20.70;99.90;;;;;;4826889;29;20105;-93
2023/06/08 08:27:39;;;;;;;0.68;0.43;;;20.60;1.00;;;;;;4812619;29;20050;-86
2023/06/08 08:30:07;;;;;;;0.63;0.63;;;20.70;1.00;;;;;;4826912;29;20057;-87
2023/06/08 08:32:42;;;;;;;0.65;0.45;;;20.80;99.90;;;;;;4812078;29;20066;-92
2023/06/08 08:35:10;;;;;;;0.65;0.65;;;20.70;1.00;;;;;;4810005;29;20504;-90
2023/06/08 08:37:45;;;;;;;0.85;0.70;;;20.70;99.90;;;;;;4806239;29;20060;-90
2023/06/08 08:40:15;;;;;;;0.90;0.40;;;20.60;99.90;;;;;;4825104;29;20528;-90
2023/06/08 08:43:02;;;;;;;0.35;0.35;;;20.50;99.90;;;;;;4825659;29;20050;-90
2023/06/08 08:45:31;;;;;;;0.55;0.55;;;20.50;99.90;;;;;;4825554;29;20545;-89
2023/06/08 08:48:01;;;;;;;0.52;0.52;;;20.50;99.90;;;;;;4817217;29;20141;-90
2023/06/08 08:50:36;;;;;;;0.40;0.40;;;20.40;1.00;;;;;;4812024;29;20129;-90
2023/06/08 08:53:02;;;;;;;0.60;0.40;;;19.70;88.60;;;;;;4822790;29;20054;-89
2023/06/08 08:55:36;;;;;;;;;;;20.10;99.90;;;;;;4818736;29;20405;-89
2023/06/08 08:58:05;;;;;;;0.25;0.25;;;20.00;1.00;;;;;;4812195;29;19947;-88
2023/06/08 09:00:34;;;;;;;0.40;0.40;;;19.80;1.00;;;;;;4822358;29;20047;-90
2023/06/08 09:03:01;;;;;;;0.57;0.40;;;20.60;99.90;;;;;;4838637;29;20053;-83
2023/06/08 09:05:27;;;;;;;0.38;0.35;;;19.90;99.90;;;;;;4805935;29;20045;-90
2023/06/08 09:07:56;;;;;;;0.60;0.47;;;20.10;1.00;;;;;;4828191;29;20048;-87
2023/06/08 09:10:25;;;;;;;1.10;0.60;;;20.30;1.00;;;;;;4826324;29;20058;-88
2023/06/08 09:12:53;;;;;;;0.50;0.45;;;20.50;99.90;;;;;;4826543;29;20045;-88
2023/06/08 09:15:30;;;;;;;0.40;0.28;;;20.70;99.90;;;;;;4823812;29;20041;-92
2023/06/08 09:17:57;;;;;;;0.43;0.38;;;20.70;99.90;;;;;;4822102;29;20442;-92
2023/06/08 09:20:27;;;;;;;0.28;0.28;;;20.90;1.00;;;;;;4813112;29;20042;-92
2023/06/08 09:22:53;;;;;;;0.60;0.60;;;20.90;99.90;;;;;;4798877;29;20046;-92
2023/06/08 09:25:36;;;;;;;0.40;0.40;;;21.00;29.80;;;;;;4825146;29;20391;-92
2023/06/08 09:28:15;;;;;;;0.30;0.30;;;21.00;99.90;;;;;;4832247;29;20380;-92
2023/06/08 09:30:41;;;;;;;0.90;0.70;;;21.10;99.90;;;;;;4827324;29;20133;-93
2023/06/08 09:33:24;;;;;;;;;;;21.10;99.90;;;;;;4827834;29;20041;-95
2023/06/08 09:36:02;;;;;;;1.15;0.75;;;21.10;99.90;;;;;;4838313;29;19931;-88
2023/06/08 09:38:30;;;;;;;0.40;0.40;;;21.20;1.00;;;;;;4840633;29;20050;-89
2023/06/08 09:41:19;;;;;;;0.40;0.40;;;21.30;1.00;;;;;;4828415;29;20046;-86
2023/06/08 09:43:50;;;;;;;1.50;0.45;;;21.40;1.00;;;;;;4820909;29;20057;-89
2023/06/08 09:46:32;;;;;;;1.35;1.02;;;21.50;99.90;;;;;;4808452;29;20050;-88
2023/06/08 09:48:57;;;;;;;0.70;0.70;;;21.60;53.00;;;;;;4816820;29;20067;-89
2023/06/08 09:51:31;;;;;;;0.50;0.50;;;21.50;99.90;;;;;;4810250;29;20054;-90
2023/06/08 09:54:03;;;;;;;0.60;0.60;;;21.50;99.90;;;;;;4825844;29;20052;-95
2023/06/08 09:56:29;;;;;;;0.50;0.50;;;21.60;99.90;;;;;;4827192;29;20054;-90
2023/06/08 09:58:58;;;;;;;0.57;0.57;;;21.50;99.90;;;;;;4819388;29;20117;-91
2023/06/08 10:01:48;;;;;;;0.68;0.68;;;21.50;99.90;;;;;;4825574;29;20128;-93
2023/06/08 10:04:39;;;;;;;;;;;;;;;;;;;;;
2023/06/08 10:07:17;;;;;;;0.28;0.28;;;21.20;1.00;;;;;;4810257;29;20050;-92
2023/06/08 10:09:48;;;;;;;0.30;0.30;;;21.90;99.90;;;;;;4825492;29;20050;-86
2023/06/08 10:12:14;;;;;;;0.80;0.80;;;21.90;1.00;;;;;;4838942;29;20048;-92
2023/06/08 10:14:40;;;;;;;0.75;0.68;;;21.90;1.00;;;;;;4823852;29;20053;-91
2023/06/08 10:17:07;;;;;;;1.42;0.40;;;22.00;1.00;;;;;;4822044;29;20608;-89
2023/06/08 10:19:38;;;;;;;0.38;0.38;;;22.10;1.00;;;;;;4805312;29;20046;-90
2023/06/08 10:22:05;;;;;;;1.02;0.60;;;22.10;99.90;;;;;;4822239;29;20049;-87
2023/06/08 10:24:36;;;;;;;0.60;0.60;;;22.10;99.90;;;;;;4816752;29;20464;-88
2023/06/08 10:27:31;;;;;;;1.65;1.55;;;22.20;99.90;;;;;;4822985;29;20049;-88
2023/06/08 10:30:08;;;;;;;1.63;0.43;;;22.20;99.90;;;;;;4823205;29;20052;-88
2023/06/08 10:32:42;;;;;;;0.85;0.75;;;22.30;1.00;;;;;;4808833;29;20046;-90
2023/06/08 10:35:15;;;;;;;0.50;0.50;;;22.40;1.00;;;;;;4805151;29;20050;-88
2023/06/08 10:37:54;;;;;;;;;;;;;;;;;;;;;
2023/06/08 10:40:41;;;;;;;0.60;0.60;;;22.20;1.00;;;;;;4823400;29;20050;-88
2023/06/08 10:43:10;;;;;;;0.45;0.40;;;22.50;1.00;;;;;;4818833;29;20049;-89
2023/06/08 10:45:43;;;;;;;1.30;0.85;;;21.80;26.80;;;;;;4807793;29;20069;-88
2023/06/08 10:48:18;;;;;;;0.45;0.45;;;22.70;1.00;;;;;;4806964;29;20050;-89
2023/06/08 10:50:46;;;;;;;0.75;0.55;;;22.80;99.90;;;;;;4790992;29;20561;-88
2023/06/08 10:53:18;;;;;;;0.40;0.40;;;22.80;1.00;;;;;;4808992;29;20649;-91
2023/06/08 10:56:02;;;;;;;0.77;0.77;;;22.80;99.90;;;;;;4811381;29;20054;-93
2023/06/08 10:58:28;;;;;;;0.40;0.40;;;22.80;99.90;;;;;;4821269;29;20050;-95
2023/06/08 11:01:18;;;;;;;0.75;0.50;;;22.90;99.90;;;;;;4809839;29;20062;-92
2023/06/08 11:03:57;;;;;;;1.75;1.35;;;22.90;59.00;;;;;;4808400;29;20045;-92
2023/06/08 11:06:52;;;;;;;1.35;1.25;;;23.80;99.90;;;;;;4808035;29;20044;-90
2023/06/08 11:09:56;;;;;;;;;;;;;;;;;;;;;
2023/06/08 11:12:24;;;;;;;1.23;0.90;;;23.20;1.00;;;;;;4825581;29;20072;-89
2023/06/08 11:14:53;;;;;;;0.45;0.28;;;23.20;99.90;;;;;;4794931;29;20099;-91
2023/06/08 11:17:23;;;;;;;0.60;0.55;;;23.30;99.90;;;;;;4810705;29;20156;-91
2023/06/08 11:19:49;;;;;;;0.40;0.40;;;23.50;99.90;;;;;;4807981;29;20045;-89
2023/06/08 11:22:26;;;;;;;0.70;0.50;;;23.40;99.90;;;;;;4806082;29;21018;-89
2023/06/08 11:25:09;;;;;;;0.50;0.50;;;23.50;99.90;;;;;;4810186;29;20084;-91
2023/06/08 11:28:31;;;;;;;;;;;;;;;;;;;;;
2023/06/08 11:31:42;;;;;;;;;;;;;;;;;;;;;
2023/06/08 11:34:25;;;;;;;0.63;0.60;;;23.70;1.00;;;;;;4820376;29;20662;-93
2023/06/08 11:36:57;;;;;;;0.50;0.50;;;23.70;99.90;;;;;;4821080;29;20129;-91
2023/06/08 11:39:23;;;;;;;1.30;0.90;;;23.70;99.90;;;;;;4822978;29;20046;-86
2023/06/08 11:41:56;;;;;;;0.93;0.57;;;23.60;95.40;;;;;;4827208;29;20041;-95
2023/06/08 11:44:28;;;;;;;0.70;0.60;;;23.70;99.90;;;;;;4810784;29;20077;-94
2023/06/08 11:47:23;;;;;;;1.27;0.80;;;23.70;52.90;;;;;;4812244;29;20042;-94
2023/06/08 11:50:17;;;;;;;0.47;0.30;;;23.90;99.90;;;;;;4817496;29;20066;-95
2023/06/08 11:52:58;;;;;;;2.30;0.75;;;24.00;1.00;;;;;;4813799;29;20045;-95
2023/06/08 11:55:30;;;;;;;1.33;0.68;;;23.50;1.00;;;;;;4794763;29;20130;-94
2023/06/08 11:58:07;;;;;;;0.90;0.90;;;23.90;13.20;;;;;;4811265;29;20069;-94
2023/06/08 12:00:36;;;;;;;0.38;0.38;;;23.90;88.80;;;;;;4796122;29;20064;-95
2023/06/08 12:03:28;;;;;;;0.75;0.75;;;24.00;72.60;;;;;;4830108;29;20114;-94
2023/06/08 12:06:38;;;;;;;;;;;;;;;;;;;;;
2023/06/08 12:09:08;;;;;;;0.28;0.28;;;24.20;1.00;;;;;;4806742;29;20045;-93
2023/06/08 12:12:08;;;;;;;;;;;;;;;;;;;;;
2023/06/08 12:14:55;;;;;;;0.38;0.30;;;23.70;28.20;;;;;;4804469;29;20042;-96
2023/06/08 12:17:32;;;;;;;0.50;0.45;;;24.10;1.00;;;;;;4811835;29;20493;-92
2023/06/08 12:20:18;;;;;;;0.30;0.30;;;24.20;99.90;;;;;;4830109;29;20133;-92
2023/06/08 12:25:52;;;;;;;0.65;0.32;;;23.60;1.00;;;;;;4808328;29;20054;-95
2023/06/08 12:28:31;;;;;;;0.25;0.25;;;24.30;43.30;;;;;;4801489;29;20053;-94
2023/06/08 12:35:06;;;;;;;0.52;0.45;;;24.50;99.90;;;;;;4793098;30;20058;-96
2023/06/08 12:38:06;;;;;;;0.80;0.40;;;23.90;99.90;;;;;;4758309;30;20060;-95
2023/06/08 12:40:47;;;;;;;0.47;0.47;;;24.90;99.90;;;;;;4809440;29;20066;-96
2023/06/08 12:43:28;;;;;;;0.82;0.50;;;24.40;1.00;;;;;;4814376;29;20046;-95
2023/06/08 12:46:25;;;;;;;0.70;0.40;;;24.50;99.90;;;;;;4810136;29;20045;-95
2023/06/08 12:54:44;;;;;;;0.38;0.38;;;24.60;99.90;;;;;;4810333;29;20149;-94
2023/06/08 12:57:43;;;;;;;;;;;;;;;;;;;;;
2023/06/08 13:00:25;;;;;;;;;;;;;;;;;;;;;
2023/06/08 13:03:03;;;;;;;;;;;;;;;;;;;;;
2023/06/08 13:05:29;;;;;;;1.05;0.60;;;24.00;99.90;;;;;;4829252;29;20042;-91
2023/06/08 13:08:06;;;;;;;;;;;24.40;99.90;;;;;;4816995;29;20052;-91
2023/06/08 13:10:44;;;;;;;;;;;;;;;;;;;;;
2023/06/08 13:13:20;;;;;;;0.88;0.88;;;24.40;99.90;;;;;;4827129;29;20471;-94
2023/06/08 13:15:54;;;;;;;0.68;0.50;;;24.60;99.90;;;;;;4814884;29;20061;-91
2023/06/08 13:18:32;;;;;;;0.57;0.32;;;24.60;99.90;;;;;;4812918;29;20075;-91
2023/06/08 13:21:11;;;;;;;0.60;0.60;;;24.60;99.90;;;;;;4799114;29;20054;-91
2023/06/08 13:24:10;;;;;;;0.70;0.60;;;24.70;99.90;;;;;;4810908;29;20549;-92
2023/06/08 13:27:07;;;;;;;0.30;0.30;;;24.60;99.90;;;;;;4818559;29;20490;-94
2023/06/08 13:29:38;;;;;;;0.75;0.68;;;24.90;99.90;;;;;;4815559;29;20405;-96
2023/06/08 13:33:05;;;;;;;;;;;;;;;;;;;;;
2023/06/08 13:35:46;;;;;;;;;;;;;;;;;;;;;
2023/06/08 13:38:33;;;;;;;;;;;;;;;;;;;;;
2023/06/08 13:44:51;;;;;;;0.22;0.22;;;24.80;99.90;;;;;;4839925;29;20054;-95
2023/06/08 13:47:22;;;;;;;0.55;0.43;;;24.30;99.90;;;;;;4796768;29;20421;-87
2023/06/08 13:49:59;;;;;;;0.50;0.50;;;24.80;99.90;;;;;;4782376;29;20062;-92
2023/06/08 13:52:38;;;;;;;0.98;0.57;;;24.90;99.90;;;;;;4777988;29;20061;-93